sensor_id;sensor_type;location;lat;lon;timestamp;pressure;altitude;pressure_sealevel;temperature;humidity
53932;BME280;39844;52.496;13.482;2022-10-30T00:02:09;101715.66;;;14.18;100.00
53932;BME280;39844;52.496;13.482;2022-10-30T00:04:35;101720.03;;;14.15;100.00
53932;BME280;39844;52.496;13.482;2022-10-30T00:07:00;101713.88;;;14.13;100.00
53932;BME280;39844;52.496;13.482;2022-10-30T00:09:25;101713.88;;;14.11;100.00
53932;BME280;39844;52.496;13.482;2022-10-30T00:11:51;101716.53;;;14.10;100.00
53932;BME280;39844;52.496;13.482;2022-10-30T00:14:16;101711.28;;;14.08;100.00
53932;BME280;39844;52.496;13.482;2022-10-30T00:16:42;101706.84;;;14.09;100.00
53932;BME280;39844;52.496;13.482;2022-10-30T00:19:07;101703.34;;;14.08;100.00
53932;BME280;39844;52.496;13.482;2022-10-30T00:21:32;101703.34;;;14.07;100.00
53932;BME280;39844;52.496;13.482;2022-10-30T00:23:58;101700.72;;;14.05;100.00
53932;BME280;39844;52.496;13.482;2022-10-30T00:26:23;101700.69;;;14.04;100.00
53932;BME280;39844;52.496;13.482;2022-10-30T00:28:50;101698.97;;;14.03;100.00
53932;BME280;39844;52.496;13.482;2022-10-30T00:31:16;101698.06;;;14.02;100.00
53932;BME280;39844;52.496;13.482;2022-10-30T00:33:41;101697.19;;;14.03;100.00
53932;BME280;39844;52.496;13.482;2022-10-30T00:36:06;101691.91;;;14.05;100.00
53932;BME280;39844;52.496;13.482;2022-10-30T00:38:32;101691.91;;;14.05;100.00
53932;BME280;39844;52.496;13.482;2022-10-30T00:40:57;101693.69;;;14.03;100.00
53932;BME280;39844;52.496;13.482;2022-10-30T00:43:38;101693.66;;;14.01;100.00
53932;BME280;39844;52.496;13.482;2022-10-30T00:46:21;101700.72;;;13.98;100.00
53932;BME280;39844;52.496;13.482;2022-10-30T00:48:55;101697.22;;;13.96;100.00
53932;BME280;39844;52.496;13.482;2022-10-30T00:51:21;101695.47;;;13.93;100.00
53932;BME280;39844;52.496;13.482;2022-10-30T00:53:47;101693.72;;;13.90;100.00
53932;BME280;39844;52.496;13.482;2022-10-30T00:56:15;101689.31;;;13.88;100.00
53932;BME280;39844;52.496;13.482;2022-10-30T00:58:47;101691.97;;;13.88;100.00
53932;BME280;39844;52.496;13.482;2022-10-30T01:01:16;101682.28;;;13.87;100.00
53932;BME280;39844;52.496;13.482;2022-10-30T01:03:44;101681.38;;;13.86;100.00
53932;BME280;39844;52.496;13.482;2022-10-30T01:06:11;101672.59;;;13.84;100.00
53932;BME280;39844;52.496;13.482;2022-10-30T01:08:39;101675.25;;;13.84;100.00
53932;BME280;39844;52.496;13.482;2022-10-30T01:11:06;101669.09;;;13.79;100.00
53932;BME280;39844;52.496;13.482;2022-10-30T01:13:34;101666.47;;;13.78;100.00
53932;BME280;39844;52.496;13.482;2022-10-30T01:16:13;101663.81;;;13.79;100.00
53932;BME280;39844;52.496;13.482;2022-10-30T01:24:09;101655.03;;;13.77;100.00
53932;BME280;39844;52.496;13.482;2022-10-30T01:30:01;101659.41;;;13.78;100.00
53932;BME280;39844;52.496;13.482;2022-10-30T01:32:48;101656.78;;;13.77;100.00
53932;BME280;39844;52.496;13.482;2022-10-30T01:35:27;101646.22;;;13.77;100.00
53932;BME280;39844;52.496;13.482;2022-10-30T01:38:02;101659.41;;;13.74;100.00
53932;BME280;39844;52.496;13.482;2022-10-30T01:40:28;101651.53;;;13.72;100.00
53932;BME280;39844;52.496;13.482;2022-10-30T01:42:55;101649.75;;;13.68;100.00
53932;BME280;39844;52.496;13.482;2022-10-30T01:59:16;101633.09;;;13.39;100.00
53932;BME280;39844;52.496;13.482;2022-10-30T02:01:44;101626.06;;;13.34;100.00
53932;BME280;39844;52.496;13.482;2022-10-30T02:04:11;101628.72;;;13.29;100.00
53932;BME280;39844;52.496;13.482;2022-10-30T02:06:37;101624.31;;;13.23;100.00
53932;BME280;39844;52.496;13.482;2022-10-30T02:09:04;101624.31;;;13.19;100.00
53932;BME280;39844;52.496;13.482;2022-10-30T02:11:31;101633.97;;;13.20;100.00
53932;BME280;39844;52.496;13.482;2022-10-30T02:13:57;101630.44;;;13.15;100.00
53932;BME280;39844;52.496;13.482;2022-10-30T02:16:25;101631.34;;;13.12;100.00
53932;BME280;39844;52.496;13.482;2022-10-30T02:18:51;101630.47;;;13.09;100.00
53932;BME280;39844;52.496;13.482;2022-10-30T02:21:16;101626.91;;;13.05;100.00
53932;BME280;39844;52.496;13.482;2022-10-30T02:23:41;101624.25;;;13.02;100.00
53932;BME280;39844;52.496;13.482;2022-10-30T02:26:06;101629.56;;;13.01;100.00
53932;BME280;39844;52.496;13.482;2022-10-30T02:28:32;101627.78;;;12.98;100.00
53932;BME280;39844;52.496;13.482;2022-10-30T02:30:57;101627.78;;;12.97;100.00
53932;BME280;39844;52.496;13.482;2022-10-30T02:33:22;101628.66;;;12.96;100.00
53932;BME280;39844;52.496;13.482;2022-10-30T02:35:51;101629.53;;;12.93;100.00
53932;BME280;39844;52.496;13.482;2022-10-30T02:38:17;101626.00;;;12.90;100.00
53932;BME280;39844;52.496;13.482;2022-10-30T02:40:43;101620.75;;;12.85;100.00
53932;BME280;39844;52.496;13.482;2022-10-30T02:43:08;101616.34;;;12.83;100.00
53932;BME280;39844;52.496;13.482;2022-10-30T02:45:33;101605.81;;;12.80;100.00
53932;BME280;39844;52.496;13.482;2022-10-30T02:47:59;101603.19;;;12.78;100.00
53932;BME280;39844;52.496;13.482;2022-10-30T02:50:25;101611.06;;;12.77;100.00
53932;BME280;39844;52.496;13.482;2022-10-30T02:52:50;101607.56;;;12.75;100.00
53932;BME280;39844;52.496;13.482;2022-10-30T02:55:15;101597.00;;;12.75;100.00
53932;BME280;39844;52.496;13.482;2022-10-30T02:57:41;101607.56;;;12.75;100.00
53932;BME280;39844;52.496;13.482;2022-10-30T03:00:06;101609.31;;;12.73;100.00
53932;BME280;39844;52.496;13.482;2022-10-30T03:02:32;101611.06;;;12.71;100.00
53932;BME280;39844;52.496;13.482;2022-10-30T03:04:57;101605.78;;;12.67;100.00
53932;BME280;39844;52.496;13.482;2022-10-30T03:07:23;101609.31;;;12.63;100.00
53932;BME280;39844;52.496;13.482;2022-10-30T03:09:48;101618.06;;;12.61;100.00
53932;BME280;39844;52.496;13.482;2022-10-30T03:12:13;101618.94;;;12.57;100.00
53932;BME280;39844;52.496;13.482;2022-10-30T03:14:38;101625.97;;;12.55;100.00
53932;BME280;39844;52.496;13.482;2022-10-30T03:17:04;101620.69;;;12.52;100.00
53932;BME280;39844;52.496;13.482;2022-10-30T03:19:29;101618.91;;;12.51;100.00
53932;BME280;39844;52.496;13.482;2022-10-30T03:21:54;101628.59;;;12.50;100.00
53932;BME280;39844;52.496;13.482;2022-10-30T03:24:20;101638.25;;;12.53;100.00
53932;BME280;39844;52.496;13.482;2022-10-30T03:26:46;101627.72;;;12.54;100.00
53932;BME280;39844;52.496;13.482;2022-10-30T03:29:11;101628.56;;;12.53;100.00
53932;BME280;39844;52.496;13.482;2022-10-30T03:31:36;101618.91;;;12.51;100.00
53932;BME280;39844;52.496;13.482;2022-10-30T03:34:02;101616.28;;;12.46;100.00
53932;BME280;39844;52.496;13.482;2022-10-30T03:36:27;101624.19;;;12.45;100.00
53932;BME280;39844;52.496;13.482;2022-10-30T03:38:52;101611.88;;;12.42;100.00
53932;BME280;39844;52.496;13.482;2022-10-30T03:41:18;101621.53;;;12.40;100.00
53932;BME280;39844;52.496;13.482;2022-10-30T03:43:43;101617.16;;;12.44;100.00
53932;BME280;39844;52.496;13.482;2022-10-30T03:46:09;101614.53;;;12.45;100.00
53932;BME280;39844;52.496;13.482;2022-10-30T03:48:35;101607.50;;;12.44;100.00
53932;BME280;39844;52.496;13.482;2022-10-30T03:51:00;101604.00;;;12.45;100.00
53932;BME280;39844;52.496;13.482;2022-10-30T03:53:28;101595.22;;;12.46;100.00
53932;BME280;39844;52.496;13.482;2022-10-30T03:55:58;101589.94;;;12.49;100.00
53932;BME280;39844;52.496;13.482;2022-10-30T03:58:25;101586.44;;;12.53;100.00
53932;BME280;39844;52.496;13.482;2022-10-30T04:00:50;101579.44;;;12.55;100.00
53932;BME280;39844;52.496;13.482;2022-10-30T04:03:16;101580.34;;;12.60;100.00
53932;BME280;39844;52.496;13.482;2022-10-30T04:05:41;101583.84;;;12.65;100.00
53932;BME280;39844;52.496;13.482;2022-10-30T04:08:10;101582.97;;;12.69;100.00
53932;BME280;39844;52.496;13.482;2022-10-30T04:10:36;101587.34;;;12.77;100.00
53932;BME280;39844;52.496;13.482;2022-10-30T04:13:04;101586.50;;;12.81;100.00
53932;BME280;39844;52.496;13.482;2022-10-30T04:15:30;101575.06;;;12.85;100.00
53932;BME280;39844;52.496;13.482;2022-10-30T04:17:55;101586.50;;;12.90;100.00
53932;BME280;39844;52.496;13.482;2022-10-30T04:20:22;101596.16;;;12.92;100.00
53932;BME280;39844;52.496;13.482;2022-10-30T04:22:48;101598.78;;;12.97;100.00
53932;BME280;39844;52.496;13.482;2022-10-30T04:25:13;101598.78;;;13.00;100.00
53932;BME280;39844;52.496;13.482;2022-10-30T04:27:43;101604.94;;;13.00;100.00
53932;BME280;39844;52.496;13.482;2022-10-30T04:30:10;101606.72;;;13.01;100.00
53932;BME280;39844;52.496;13.482;2022-10-30T04:32:36;101607.56;;;13.02;100.00
53932;BME280;39844;52.496;13.482;2022-10-30T04:35:02;101602.28;;;13.02;100.00
53932;BME280;39844;52.496;13.482;2022-10-30T04:37:28;101608.47;;;13.01;100.00
53932;BME280;39844;52.496;13.482;2022-10-30T04:39:54;101609.31;;;13.00;100.00
53932;BME280;39844;52.496;13.482;2022-10-30T04:42:19;101623.41;;;12.99;100.00
53932;BME280;39844;52.496;13.482;2022-10-30T04:44:44;101620.75;;;13.00;100.00
53932;BME280;39844;52.496;13.482;2022-10-30T04:47:09;101622.53;;;13.01;100.00
53932;BME280;39844;52.496;13.482;2022-10-30T04:49:35;101619.88;;;13.03;100.00
53932;BME280;39844;52.496;13.482;2022-10-30T04:52:00;101629.53;;;13.02;100.00
53932;BME280;39844;52.496;13.482;2022-10-30T04:54:25;101630.44;;;13.03;100.00
53932;BME280;39844;52.496;13.482;2022-10-30T04:56:52;101604.94;;;13.05;100.00
53932;BME280;39844;52.496;13.482;2022-10-30T04:59:18;101606.72;;;13.06;100.00
53932;BME280;39844;52.496;13.482;2022-10-30T05:01:43;101619.03;;;13.07;100.00
53932;BME280;39844;52.496;13.482;2022-10-30T05:04:08;101621.66;;;13.07;100.00
53932;BME280;39844;52.496;13.482;2022-10-30T05:06:33;101609.38;;;13.07;100.00
53932;BME280;39844;52.496;13.482;2022-10-30T05:08:59;101594.44;;;13.08;100.00
53932;BME280;39844;52.496;13.482;2022-10-30T05:11:24;101594.44;;;13.11;100.00
53932;BME280;39844;52.496;13.482;2022-10-30T05:13:49;101605.84;;;13.14;100.00
53932;BME280;39844;52.496;13.482;2022-10-30T05:16:15;101597.09;;;13.14;100.00
53932;BME280;39844;52.496;13.482;2022-10-30T05:18:40;101598.81;;;13.15;100.00
53932;BME280;39844;52.496;13.482;2022-10-30T05:21:05;101590.94;;;13.16;100.00
53932;BME280;39844;52.496;13.482;2022-10-30T05:23:31;101612.00;;;13.18;100.00
53932;BME280;39844;52.496;13.482;2022-10-30T05:25:59;101600.59;;;13.16;100.00
53932;BME280;39844;52.496;13.482;2022-10-30T05:28:24;101600.59;;;13.16;100.00
53932;BME280;39844;52.496;13.482;2022-10-30T05:30:51;101598.81;;;13.15;100.00
53932;BME280;39844;52.496;13.482;2022-10-30T05:33:17;101596.19;;;13.15;100.00
53932;BME280;39844;52.496;13.482;2022-10-30T05:35:43;101579.50;;;13.16;100.00
53932;BME280;39844;52.496;13.482;2022-10-30T05:38:12;101575.09;;;13.15;100.00
53932;BME280;39844;52.496;13.482;2022-10-30T05:40:38;101562.78;;;13.15;100.00
53932;BME280;39844;52.496;13.482;2022-10-30T05:43:04;101556.66;;;13.16;100.00
53932;BME280;39844;52.496;13.482;2022-10-30T05:45:29;101559.28;;;13.18;100.00
53932;BME280;39844;52.496;13.482;2022-10-30T05:47:56;101567.22;;;13.19;100.00
53932;BME280;39844;52.496;13.482;2022-10-30T05:50:23;101571.59;;;13.19;100.00
53932;BME280;39844;52.496;13.482;2022-10-30T05:52:48;101584.78;;;13.19;100.00
53932;BME280;39844;52.496;13.482;2022-10-30T05:55:14;101599.69;;;13.20;100.00
53932;BME280;39844;52.496;13.482;2022-10-30T05:57:39;101589.16;;;13.18;100.00
53932;BME280;39844;52.496;13.482;2022-10-30T06:00:06;101575.97;;;13.20;100.00
53932;BME280;39844;52.496;13.482;2022-10-30T06:02:31;101549.59;;;13.17;100.00
53932;BME280;39844;52.496;13.482;2022-10-30T06:04:56;101540.84;;;13.16;100.00
53932;BME280;39844;52.496;13.482;2022-10-30T06:07:22;101553.13;;;13.16;100.00
53932;BME280;39844;52.496;13.482;2022-10-30T06:09:47;101572.47;;;13.16;100.00
53932;BME280;39844;52.496;13.482;2022-10-30T06:12:13;101558.41;;;13.16;100.00
53932;BME280;39844;52.496;13.482;2022-10-30T06:14:38;101571.59;;;13.16;100.00
53932;BME280;39844;52.496;13.482;2022-10-30T06:17:03;101560.13;;;13.17;100.00
53932;BME280;39844;52.496;13.482;2022-10-30T06:19:28;101569.84;;;13.16;100.00
53932;BME280;39844;52.496;13.482;2022-10-30T06:21:54;101574.22;;;13.19;100.00
53932;BME280;39844;52.496;13.482;2022-10-30T06:24:19;101583.88;;;13.18;100.00
53932;BME280;39844;52.496;13.482;2022-10-30T06:26:44;101575.97;;;13.20;100.00
53932;BME280;39844;52.496;13.482;2022-10-30T06:29:10;101561.03;;;13.19;100.00
53932;BME280;39844;52.496;13.482;2022-10-30T06:31:35;101566.31;;;13.20;100.00
53932;BME280;39844;52.496;13.482;2022-10-30T06:34:00;101555.78;;;13.22;100.00
53932;BME280;39844;52.496;13.482;2022-10-30T06:36:26;101539.97;;;13.22;100.00
53932;BME280;39844;52.496;13.482;2022-10-30T06:38:54;101537.31;;;13.23;100.00
53932;BME280;39844;52.496;13.482;2022-10-30T06:41:22;101540.81;;;13.24;100.00
53932;BME280;39844;52.496;13.482;2022-10-30T06:43:48;101548.72;;;13.24;100.00
53932;BME280;39844;52.496;13.482;2022-10-30T06:46:17;101552.25;;;13.26;100.00
53932;BME280;39844;52.496;13.482;2022-10-30T06:48:43;101567.19;;;13.27;100.00
53932;BME280;39844;52.496;13.482;2022-10-30T06:51:08;101561.88;;;13.30;100.00
53932;BME280;39844;52.496;13.482;2022-10-30T06:53:35;101575.09;;;13.35;100.00
53932;BME280;39844;52.496;13.482;2022-10-30T06:56:01;101559.22;;;13.38;100.00
53932;BME280;39844;52.496;13.482;2022-10-30T06:58:29;101571.53;;;13.40;100.00
53932;BME280;39844;52.496;13.482;2022-10-30T07:00:55;101557.47;;;13.43;100.00
53932;BME280;39844;52.496;13.482;2022-10-30T07:03:23;101561.84;;;13.45;100.00
53932;BME280;39844;52.496;13.482;2022-10-30T07:05:48;101573.28;;;13.49;100.00
53932;BME280;39844;52.496;13.482;2022-10-30T07:08:13;101575.91;;;13.50;100.00
53932;BME280;39844;52.496;13.482;2022-10-30T07:10:39;101583.81;;;13.50;100.00
53932;BME280;39844;52.496;13.482;2022-10-30T07:13:04;101595.28;;;13.52;100.00
53932;BME280;39844;52.496;13.482;2022-10-30T07:15:30;101596.13;;;13.53;100.00
53932;BME280;39844;52.496;13.482;2022-10-30T07:17:57;101600.53;;;13.54;100.00
53932;BME280;39844;52.496;13.482;2022-10-30T07:20:24;101599.66;;;13.53;100.00
53932;BME280;39844;52.496;13.482;2022-10-30T07:22:49;101602.28;;;13.53;100.00
53932;BME280;39844;52.496;13.482;2022-10-30T07:25:15;101602.28;;;13.53;100.00
53932;BME280;39844;52.496;13.482;2022-10-30T07:27:44;101611.06;;;13.55;100.00
53932;BME280;39844;52.496;13.482;2022-10-30T07:30:14;101616.38;;;13.54;100.00
53932;BME280;39844;52.496;13.482;2022-10-30T07:32:40;101609.34;;;13.54;100.00
53932;BME280;39844;52.496;13.482;2022-10-30T07:35:06;101604.06;;;13.54;100.00
53932;BME280;39844;52.496;13.482;2022-10-30T07:37:32;101620.75;;;13.56;100.00
53932;BME280;39844;52.496;13.482;2022-10-30T07:39:58;101622.50;;;13.59;100.00
53932;BME280;39844;52.496;13.482;2022-10-30T07:42:23;101622.50;;;13.63;100.00
53932;BME280;39844;52.496;13.482;2022-10-30T07:44:48;101627.75;;;13.68;100.00
53932;BME280;39844;52.496;13.482;2022-10-30T07:47:14;101607.53;;;13.71;100.00
53932;BME280;39844;52.496;13.482;2022-10-30T07:49:39;101615.44;;;13.74;100.00
53932;BME280;39844;52.496;13.482;2022-10-30T07:52:04;101618.09;;;13.77;100.00
53932;BME280;39844;52.496;13.482;2022-10-30T07:54:30;101618.06;;;13.82;100.00
53932;BME280;39844;52.496;13.482;2022-10-30T07:56:55;101614.53;;;13.84;100.00
53932;BME280;39844;52.496;13.482;2022-10-30T07:59:22;101624.19;;;13.88;100.00
53932;BME280;39844;52.496;13.482;2022-10-30T08:01:47;101618.03;;;13.92;100.00
53932;BME280;39844;52.496;13.482;2022-10-30T08:04:13;101604.81;;;13.94;100.00
53932;BME280;39844;52.496;13.482;2022-10-30T08:06:39;101596.03;;;13.98;100.00
53932;BME280;39844;52.496;13.482;2022-10-30T08:09:04;101613.56;;;14.04;100.00
53932;BME280;39844;52.496;13.482;2022-10-30T08:11:30;101609.16;;;14.12;100.00
53932;BME280;39844;52.496;13.482;2022-10-30T08:13:55;101616.16;;;14.19;100.00
53932;BME280;39844;52.496;13.482;2022-10-30T08:16:20;101614.38;;;14.28;100.00
53932;BME280;39844;52.496;13.482;2022-10-30T08:18:46;101610.81;;;14.41;100.00
53932;BME280;39844;52.496;13.482;2022-10-30T08:21:11;101600.22;;;14.49;100.00
53932;BME280;39844;52.496;13.482;2022-10-30T08:23:36;101620.41;;;14.56;100.00
53932;BME280;39844;52.496;13.482;2022-10-30T08:26:02;101606.28;;;14.60;100.00
53932;BME280;39844;52.496;13.482;2022-10-30T08:28:27;101608.03;;;14.64;100.00
53932;BME280;39844;52.496;13.482;2022-10-30T08:30:52;101617.69;;;14.68;100.00
53932;BME280;39844;52.496;13.482;2022-10-30T08:33:18;101615.91;;;14.70;100.00
53932;BME280;39844;52.496;13.482;2022-10-30T08:35:51;101614.13;;;14.72;100.00
53932;BME280;39844;52.496;13.482;2022-10-30T08:38:17;101607.97;;;14.72;100.00
53932;BME280;39844;52.496;13.482;2022-10-30T08:40:44;101610.59;;;14.73;100.00
53932;BME280;39844;52.496;13.482;2022-10-30T08:43:09;101615.00;;;14.76;100.00
53932;BME280;39844;52.496;13.482;2022-10-30T08:45:35;101613.19;;;14.81;100.00
53932;BME280;39844;52.496;13.482;2022-10-30T08:48:02;101607.88;;;14.85;100.00
53932;BME280;39844;52.496;13.482;2022-10-30T08:50:29;101614.00;;;14.92;100.00
53932;BME280;39844;52.496;13.482;2022-10-30T08:52:54;101613.94;;;14.99;100.00
53932;BME280;39844;52.496;13.482;2022-10-30T08:55:20;101615.66;;;15.06;100.00
53932;BME280;39844;52.496;13.482;2022-10-30T08:57:45;101615.56;;;15.15;100.00
53932;BME280;39844;52.496;13.482;2022-10-30T09:00:11;101622.53;;;15.26;100.00
53932;BME280;39844;52.496;13.482;2022-10-30T09:02:37;101614.53;;;15.35;100.00
53932;BME280;39844;52.496;13.482;2022-10-30T09:05:04;101634.72;;;15.42;100.00
53932;BME280;39844;52.496;13.482;2022-10-30T09:07:31;101617.06;;;15.50;100.00
53932;BME280;39844;52.496;13.482;2022-10-30T09:09:56;101613.44;;;15.57;100.00
53932;BME280;39844;52.496;13.482;2022-10-30T09:12:21;101619.56;;;15.63;100.00
53932;BME280;39844;52.496;13.482;2022-10-30T09:14:47;101614.19;;;15.69;99.65
53932;BME280;39844;52.496;13.482;2022-10-30T09:17:12;101621.22;;;15.73;98.43
53932;BME280;39844;52.496;13.482;2022-10-30T09:19:37;101614.13;;;15.78;97.57
53932;BME280;39844;52.496;13.482;2022-10-30T09:22:04;101611.44;;;15.80;96.20
53932;BME280;39844;52.496;13.482;2022-10-30T09:24:29;101609.63;;;15.85;95.20
53932;BME280;39844;52.496;13.482;2022-10-30T09:26:54;101614.88;;;15.88;94.80
53932;BME280;39844;52.496;13.482;2022-10-30T09:29:20;101602.50;;;15.90;93.90
53932;BME280;39844;52.496;13.482;2022-10-30T09:31:45;101594.47;;;15.95;93.41
53932;BME280;39844;52.496;13.482;2022-10-30T09:34:11;101605.94;;;15.98;92.88
53932;BME280;39844;52.496;13.482;2022-10-30T09:36:36;101587.34;;;16.03;92.26
53932;BME280;39844;52.496;13.482;2022-10-30T09:39:01;101599.59;;;16.11;91.45
53932;BME280;39844;52.496;13.482;2022-10-30T09:47:21;101590.41;;;16.36;87.34
53932;BME280;39844;52.496;13.482;2022-10-30T09:55:40;101569.72;;;16.63;84.06
53932;BME280;39844;52.496;13.482;2022-10-30T10:00:38;101576.59;;;16.77;82.94
53932;BME280;39844;52.496;13.482;2022-10-30T10:03:34;101584.50;;;16.80;82.95
53932;BME280;39844;52.496;13.482;2022-10-30T10:06:03;101584.44;;;16.83;82.71
53932;BME280;39844;52.496;13.482;2022-10-30T10:08:38;101593.19;;;16.90;82.40
53932;BME280;39844;52.496;13.482;2022-10-30T10:11:13;101602.78;;;16.97;80.96
53932;BME280;39844;52.496;13.482;2022-10-30T10:16:28;101604.38;;;17.07;79.82
53932;BME280;39844;52.496;13.482;2022-10-30T10:19:25;101594.53;;;17.14;78.68
53932;BME280;39844;52.496;13.482;2022-10-30T10:22:01;101589.00;;;17.27;78.05
53932;BME280;39844;52.496;13.482;2022-10-30T10:24:33;101591.44;;;17.41;77.54
53932;BME280;39844;52.496;13.482;2022-10-30T10:43:30;101585.78;;;18.03;72.26
53932;BME280;39844;52.496;13.482;2022-10-30T10:54:29;101573.63;;;18.33;70.88
53932;BME280;39844;52.496;13.482;2022-10-30T10:56:57;101573.47;;;18.41;70.12
53932;BME280;39844;52.496;13.482;2022-10-30T10:59:40;101566.22;;;18.49;69.59
53932;BME280;39844;52.496;13.482;2022-10-30T11:04:39;101567.66;;;18.63;70.60
53932;BME280;39844;52.496;13.482;2022-10-30T11:07:24;101563.94;;;18.70;70.23
53932;BME280;39844;52.496;13.482;2022-10-30T11:09:54;101559.41;;;18.74;69.39
53932;BME280;39844;52.496;13.482;2022-10-30T11:12:34;101559.31;;;18.78;68.59
53932;BME280;39844;52.496;13.482;2022-10-30T11:20:30;101547.16;;;19.04;65.75
53932;BME280;39844;52.496;13.482;2022-10-30T11:22:58;101546.88;;;19.14;64.56
53932;BME280;39844;52.496;13.482;2022-10-30T11:25:25;101555.47;;;19.24;64.44
53932;BME280;39844;52.496;13.482;2022-10-30T11:27:56;101555.31;;;19.30;63.99
53932;BME280;39844;52.496;13.482;2022-10-30T11:30:24;101556.94;;;19.35;63.43
53932;BME280;39844;52.496;13.482;2022-10-30T11:32:52;101561.22;;;19.42;63.59
53932;BME280;39844;52.496;13.482;2022-10-30T11:35:19;101554.94;;;19.45;63.19
53932;BME280;39844;52.496;13.482;2022-10-30T11:37:49;101560.09;;;19.51;63.03
53932;BME280;39844;52.496;13.482;2022-10-30T11:40:22;101565.28;;;19.57;62.88
53932;BME280;39844;52.496;13.482;2022-10-30T11:42:57;101559.69;;;19.66;62.08
53932;BME280;39844;52.496;13.482;2022-10-30T11:45:33;101561.50;;;19.95;61.44
53932;BME280;39844;52.496;13.482;2022-10-30T11:48:01;101561.94;;;20.41;60.68
53932;BME280;39844;52.496;13.482;2022-10-30T11:50:33;101565.00;;;20.83;59.20
53932;BME280;39844;52.496;13.482;2022-10-30T11:53:10;101558.41;;;21.21;58.25
53932;BME280;39844;52.496;13.482;2022-10-30T11:55:39;101555.44;;;21.55;57.68
53932;BME280;39844;52.496;13.482;2022-10-30T11:58:06;101552.19;;;21.70;55.71
53932;BME280;39844;52.496;13.482;2022-10-30T12:00:36;101553.56;;;21.81;55.56
53932;BME280;39844;52.496;13.482;2022-10-30T12:03:26;101542.72;;;21.86;54.59
53932;BME280;39844;52.496;13.482;2022-10-30T12:06:06;101536.22;;;21.93;54.34
53932;BME280;39844;52.496;13.482;2022-10-30T12:08:32;101536.50;;;22.09;54.24
53932;BME280;39844;52.496;13.482;2022-10-30T12:10:59;101540.69;;;22.16;53.13
53932;BME280;39844;52.496;13.482;2022-10-30T12:13:27;101543.28;;;22.17;53.21
53932;BME280;39844;52.496;13.482;2022-10-30T12:16:15;101539.63;;;22.20;53.46
53932;BME280;39844;52.496;13.482;2022-10-30T12:18:53;101541.16;;;22.27;52.91
53932;BME280;39844;52.496;13.482;2022-10-30T12:21:23;101537.09;;;22.38;53.43
53932;BME280;39844;52.496;13.482;2022-10-30T12:23:51;101534.00;;;22.49;52.97
53932;BME280;39844;52.496;13.482;2022-10-30T12:26:19;101542.78;;;22.52;52.53
53932;BME280;39844;52.496;13.482;2022-10-30T12:28:53;101541.28;;;22.45;52.09
53932;BME280;39844;52.496;13.482;2022-10-30T12:31:44;101552.06;;;22.44;51.94
53932;BME280;39844;52.496;13.482;2022-10-30T12:36:57;101544.31;;;22.36;51.84
53932;BME280;39844;52.496;13.482;2022-10-30T12:42:14;101540.78;;;22.36;51.54
53932;BME280;39844;52.496;13.482;2022-10-30T12:44:50;101540.09;;;22.31;51.94
53932;BME280;39844;52.496;13.482;2022-10-30T12:47:25;101538.59;;;22.24;51.30
53932;BME280;39844;52.496;13.482;2022-10-30T12:50:10;101535.03;;;22.23;51.77
53932;BME280;39844;52.496;13.482;2022-10-30T12:52:43;101539.50;;;22.23;52.70
53932;BME280;39844;52.496;13.482;2022-10-30T12:55:30;101533.44;;;22.19;52.07
53932;BME280;39844;52.496;13.482;2022-10-30T13:00:33;101531.03;;;22.12;52.59
53932;BME280;39844;52.496;13.482;2022-10-30T13:03:19;101526.69;;;22.09;52.92
53932;BME280;39844;52.496;13.482;2022-10-30T13:05:50;101533.88;;;22.07;52.88
53932;BME280;39844;52.496;13.482;2022-10-30T13:08:33;101530.50;;;22.02;52.51
53932;BME280;39844;52.496;13.482;2022-10-30T13:11:11;101535.03;;;22.00;52.30
53932;BME280;39844;52.496;13.482;2022-10-30T13:13:42;101531.56;;;21.98;52.87
53932;BME280;39844;52.496;13.482;2022-10-30T13:16:14;101522.66;;;21.97;52.76
53932;BME280;39844;52.496;13.482;2022-10-30T13:18:40;101522.78;;;21.94;52.85
53932;BME280;39844;52.496;13.482;2022-10-30T13:21:22;101523.63;;;21.96;53.27
53932;BME280;39844;52.496;13.482;2022-10-30T13:24:02;101524.53;;;21.95;53.48
53932;BME280;39844;52.496;13.482;2022-10-30T13:29:17;101527.13;;;21.97;53.22
53932;BME280;39844;52.496;13.482;2022-10-30T13:34:49;101520.88;;;21.98;53.49
53932;BME280;39844;52.496;13.482;2022-10-30T13:37:23;101520.78;;;21.99;53.10
53932;BME280;39844;52.496;13.482;2022-10-30T13:40:12;101526.22;;;21.98;53.62
53932;BME280;39844;52.496;13.482;2022-10-30T13:48:13;101520.19;;;21.93;53.57
53932;BME280;39844;52.496;13.482;2022-10-30T13:51:21;101519.38;;;21.91;53.42
53932;BME280;39844;52.496;13.482;2022-10-30T13:56:44;101518.50;;;21.90;53.67
53932;BME280;39844;52.496;13.482;2022-10-30T14:07:48;101522.16;;;21.88;53.20
53932;BME280;39844;52.496;13.482;2022-10-30T14:10:30;101520.41;;;21.87;53.50
53932;BME280;39844;52.496;13.482;2022-10-30T14:16:06;101530.31;;;21.83;53.67
53932;BME280;39844;52.496;13.482;2022-10-30T14:18:47;101531.31;;;21.81;53.49
53932;BME280;39844;52.496;13.482;2022-10-30T14:21:37;101533.13;;;21.79;53.73
53932;BME280;39844;52.496;13.482;2022-10-30T14:24:11;101530.53;;;21.77;53.83
53932;BME280;39844;52.496;13.482;2022-10-30T14:26:41;101539.47;;;21.76;53.94